createdAt,value
2022-11-29T00:01:34.110Z,48.33
2022-11-29T00:04:01.965Z,71.50
2022-11-29T00:06:31.317Z,58.63
2022-11-29T00:09:00.984Z,61.05
2022-11-29T00:11:49.206Z,80.28
2022-11-29T00:14:18.293Z,79.03
2022-11-29T00:16:49.464Z,107.32
2022-11-29T00:19:16.832Z,83.68
2022-11-29T00:21:43.662Z,63.45
2022-11-29T00:24:10.505Z,68.90
2022-11-29T00:26:37.352Z,52.83
2022-11-29T00:29:05.400Z,47.70
2022-11-29T00:31:33.602Z,75.18
2022-11-29T00:34:03.295Z,57.60
2022-11-29T00:36:31.007Z,57.00
2022-11-29T00:38:58.252Z,47.80
2022-11-29T00:41:25.574Z,44.05
2022-11-29T00:43:52.488Z,53.88
2022-11-29T00:46:19.519Z,52.22
2022-11-29T00:48:46.340Z,32.65
2022-11-29T00:51:13.337Z,39.17
2022-11-29T00:53:40.420Z,38.85
2022-11-29T00:56:07.807Z,44.22
2022-11-29T00:58:36.019Z,38.58
2022-11-29T01:01:03.559Z,34.97
2022-11-29T01:03:30.611Z,31.00
2022-11-29T01:06:02.900Z,44.83
2022-11-29T01:08:29.841Z,45.33
2022-11-29T01:11:24.585Z,44.45
2022-11-29T01:13:55.103Z,43.65
2022-11-29T01:16:22.116Z,36.47
2022-11-29T01:18:48.987Z,42.95
2022-11-29T01:21:18.638Z,40.30
2022-11-29T01:23:46.826Z,36.90
2022-11-29T01:26:19.790Z,41.38
2022-11-29T01:28:49.197Z,32.58
2022-11-29T01:31:20.638Z,34.47
2022-11-29T01:33:47.589Z,33.97
2022-11-29T01:36:15.021Z,43.72
2022-11-29T01:38:45.039Z,38.22
2022-11-29T01:41:22.243Z,43.60
2022-11-29T01:44:28.461Z,45.00
2022-11-29T01:46:56.195Z,79.63
2022-11-29T01:49:30.424Z,54.70
2022-11-29T01:52:08.061Z,43.03
2022-11-29T01:54:40.981Z,52.03
2022-11-29T01:57:09.456Z,42.33
2022-11-29T01:59:41.202Z,51.42
2022-11-29T02:02:20.382Z,39.90
2022-11-29T02:04:48.290Z,35.08
2022-11-29T02:07:15.946Z,35.15
2022-11-29T02:09:42.910Z,25.42
2022-11-29T02:12:19.032Z,27.38
2022-11-29T02:15:10.193Z,29.70
2022-11-29T02:18:08.427Z,29.75
2022-11-29T02:21:03.816Z,33.60
2022-11-29T02:24:08.502Z,40.63
2022-11-29T02:27:15.709Z,43.28
2022-11-29T02:30:07.719Z,81.63
2022-11-29T02:33:15.321Z,55.17
2022-11-29T02:36:17.898Z,62.40
2022-11-29T02:39:21.948Z,45.50
2022-11-29T02:42:24.312Z,45.80
2022-11-29T02:45:19.157Z,42.35
2022-11-29T02:48:04.482Z,68.70
2022-11-29T02:50:52.998Z,48.88
2022-11-29T02:53:32.094Z,68.88
2022-11-29T02:56:06.054Z,45.88
2022-11-29T02:58:47.635Z,77.53
2022-11-29T03:01:40.978Z,46.90
2022-11-29T03:04:28.745Z,37.67
2022-11-29T03:07:19.188Z,40.63
2022-11-29T03:10:22.031Z,43.70
2022-11-29T03:12:52.184Z,36.45
2022-11-29T03:15:59.680Z,56.05
2022-11-29T03:19:04.420Z,78.88
2022-11-29T03:21:34.298Z,55.17
2022-11-29T03:24:12.581Z,41.35
2022-11-29T03:26:44.504Z,53.83
2022-11-29T03:29:40.296Z,34.08
2022-11-29T03:32:42.871Z,30.23
2022-11-29T03:35:46.741Z,34.25
2022-11-29T03:38:33.897Z,42.67
2022-11-29T03:41:25.514Z,33.70
2022-11-29T03:44:00.398Z,44.60
2022-11-29T03:46:54.589Z,36.70
2022-11-29T03:49:45.116Z,55.00
2022-11-29T03:52:24.112Z,62.38
2022-11-29T03:55:08.436Z,63.60
2022-11-29T03:57:45.169Z,60.15
2022-11-29T04:00:13.941Z,56.33
2022-11-29T04:03:00.761Z,42.35
2022-11-29T04:05:45.523Z,47.70
2022-11-29T04:08:34.413Z,43.60
2022-11-29T04:11:55.011Z,40.45
2022-11-29T04:14:48.410Z,40.67
2022-11-29T04:17:38.327Z,54.22
2022-11-29T04:20:46.692Z,41.95
2022-11-29T04:23:44.626Z,42.35
2022-11-29T04:26:36.712Z,48.05
2022-11-29T04:29:15.433Z,55.00
2022-11-29T04:31:54.500Z,58.03
2022-11-29T04:34:34.377Z,56.15
2022-11-29T04:37:18.640Z,48.97
2022-11-29T04:40:19.190Z,37.50
2022-11-29T04:42:58.060Z,38.63
2022-11-29T04:45:49.431Z,35.65
2022-11-29T04:49:27.347Z,31.15
2022-11-29T04:54:39.733Z,28.25
2022-11-29T04:57:10.603Z,34.15
2022-11-29T05:00:05.888Z,36.28
2022-11-29T05:02:57.181Z,39.83
2022-11-29T05:05:35.061Z,36.05
2022-11-29T05:08:46.840Z,31.35
2022-11-29T05:11:46.175Z,31.90
2022-11-29T05:14:42.015Z,36.05
2022-11-29T05:17:33.356Z,50.45
2022-11-29T05:20:21.580Z,63.53
2022-11-29T05:23:21.234Z,57.15
2022-11-29T05:26:06.684Z,35.03
2022-11-29T05:28:43.200Z,33.88
2022-11-29T05:31:26.296Z,40.28
2022-11-29T05:34:06.089Z,40.00
2022-11-29T05:36:50.150Z,72.68
2022-11-29T05:40:01.941Z,82.47
2022-11-29T05:42:50.736Z,101.68
2022-11-29T05:45:25.193Z,82.63
2022-11-29T05:48:18.529Z,83.77
2022-11-29T05:51:02.822Z,64.97
2022-11-29T05:53:39.681Z,113.90
2022-11-29T05:56:18.395Z,61.42
2022-11-29T05:58:54.215Z,87.43
2022-11-29T06:01:36.519Z,78.70
2022-11-29T06:04:17.618Z,54.85
2022-11-29T06:07:02.820Z,32.40
2022-11-29T06:10:01.372Z,73.05
2022-11-29T06:12:35.700Z,79.28
2022-11-29T06:15:13.700Z,49.38
2022-11-29T06:18:17.864Z,66.00
2022-11-29T06:20:53.967Z,63.72
2022-11-29T06:23:29.104Z,72.00
2022-11-29T06:26:04.120Z,109.13
2022-11-29T06:31:38.217Z,42.83
2022-11-29T06:34:10.276Z,47.03
2022-11-29T06:36:53.623Z,43.13
2022-11-29T06:39:21.174Z,77.47
2022-11-29T06:41:48.916Z,58.30
2022-11-29T06:44:16.097Z,52.60
2022-11-29T06:46:47.065Z,56.22
2022-11-29T06:49:23.047Z,59.30
2022-11-29T06:52:04.925Z,75.53
2022-11-29T06:55:08.931Z,42.25
2022-11-29T06:57:58.971Z,45.58
2022-11-29T07:00:32.743Z,61.35
2022-11-29T07:03:24.048Z,38.58
2022-11-29T07:05:51.504Z,40.55
2022-11-29T07:08:20.868Z,83.60
2022-11-29T07:10:50.114Z,56.50
2022-11-29T07:13:19.143Z,44.15
2022-11-29T07:16:17.273Z,63.42
2022-11-29T07:18:53.436Z,35.28
2022-11-29T07:21:59.846Z,120.50
2022-11-29T07:24:47.920Z,39.38
2022-11-29T07:27:21.109Z,39.20
2022-11-29T07:30:02.645Z,61.53
2022-11-29T07:32:51.345Z,45.95
2022-11-29T07:35:27.327Z,48.85
2022-11-29T07:38:12.284Z,71.50
2022-11-29T07:40:54.287Z,61.40
2022-11-29T07:43:26.101Z,69.47
2022-11-29T07:45:54.272Z,64.35
2022-11-29T07:48:21.101Z,39.30
2022-11-29T07:50:48.456Z,43.58
2022-11-29T07:53:20.433Z,67.20
2022-11-29T07:55:48.581Z,48.83
2022-11-29T07:58:17.164Z,42.40
2022-11-29T08:00:45.335Z,48.40
2022-11-29T08:03:12.461Z,64.57
2022-11-29T08:05:40.365Z,94.43
2022-11-29T08:08:07.922Z,67.00
2022-11-29T08:10:35.546Z,51.92
2022-11-29T08:13:02.837Z,82.25
2022-11-29T08:15:29.805Z,64.95
2022-11-29T08:17:56.726Z,67.72
2022-11-29T08:20:23.784Z,64.95
2022-11-29T08:22:59.190Z,130.80
2022-11-29T08:27:54.779Z,126.55
2022-11-29T08:30:22.473Z,103.07
2022-11-29T08:32:51.845Z,83.50
2022-11-29T08:35:20.299Z,61.80
2022-11-29T08:37:47.615Z,72.50
2022-11-29T08:40:15.551Z,96.80
2022-11-29T08:42:42.618Z,42.17
2022-11-29T08:45:11.029Z,86.43
2022-11-29T08:47:39.054Z,44.75
2022-11-29T08:50:17.926Z,106.78
2022-11-29T08:53:08.342Z,106.05
2022-11-29T08:55:40.004Z,105.63
2022-11-29T08:58:10.045Z,110.75
2022-11-29T09:00:37.789Z,82.53
2022-11-29T09:03:25.289Z,93.00
2022-11-29T09:05:52.794Z,89.30
2022-11-29T09:08:20.390Z,101.72
2022-11-29T09:10:47.641Z,133.40
2022-11-29T09:13:14.949Z,105.38
2022-11-29T09:15:43.405Z,114.10
2022-11-29T09:18:10.561Z,101.80
2022-11-29T09:20:37.502Z,82.93
2022-11-29T09:23:04.689Z,99.22
2022-11-29T09:25:31.876Z,96.93
2022-11-29T09:28:02.779Z,66.90
2022-11-29T09:30:35.017Z,56.38
2022-11-29T09:33:05.221Z,84.20
2022-11-29T09:35:32.955Z,148.02
2022-11-29T09:37:59.977Z,84.32
2022-11-29T09:40:40.148Z,101.82
2022-11-29T09:43:21.444Z,68.97
2022-11-29T09:45:55.567Z,90.75
2022-11-29T09:48:37.067Z,77.25
2022-11-29T09:51:31.074Z,76.70
2022-11-29T09:54:04.841Z,66.28
2022-11-29T09:56:38.452Z,65.85
2022-11-29T09:59:23.361Z,66.22
2022-11-29T10:02:21.052Z,61.37
2022-11-29T10:04:56.134Z,61.35
2022-11-29T10:07:33.827Z,64.30
2022-11-29T10:10:17.263Z,63.28
2022-11-29T10:13:05.070Z,61.95
2022-11-29T10:15:38.430Z,66.60
2022-11-29T10:18:24.049Z,66.80
2022-11-29T10:20:53.223Z,66.70
2022-11-29T10:23:57.688Z,61.47
2022-11-29T10:26:25.921Z,58.70
2022-11-29T10:28:57.600Z,58.92
2022-11-29T10:31:34.907Z,60.85
2022-11-29T10:34:10.647Z,51.92
2022-11-29T10:36:46.372Z,49.70
2022-11-29T10:39:39.537Z,57.88
2022-11-29T10:42:32.761Z,51.60
2022-11-29T10:45:01.387Z,45.97
2022-11-29T10:47:28.371Z,54.72
2022-11-29T10:49:55.524Z,48.08
2022-11-29T10:52:23.316Z,41.42
2022-11-29T10:54:53.846Z,42.03
2022-11-29T10:57:22.489Z,44.63
2022-11-29T11:00:06.916Z,37.60
2022-11-29T11:02:34.487Z,30.55
2022-11-29T11:05:01.939Z,28.45
2022-11-29T11:07:36.419Z,31.60
2022-11-29T11:10:14.612Z,30.20
2022-11-29T11:13:00.247Z,30.67
2022-11-29T11:15:28.738Z,31.25
2022-11-29T11:18:05.139Z,25.50
2022-11-29T11:20:34.960Z,26.38
2022-11-29T11:23:26.738Z,25.05
2022-11-29T11:26:03.006Z,20.67
2022-11-29T11:29:11.631Z,23.42
2022-11-29T11:31:39.893Z,20.35
2022-11-29T11:34:27.285Z,21.50
2022-11-29T11:37:13.164Z,25.13
2022-11-29T11:42:30.405Z,26.23
2022-11-29T11:44:57.790Z,24.23
2022-11-29T11:47:31.042Z,21.20
2022-11-29T11:50:02.059Z,25.85
2022-11-29T11:52:40.543Z,22.10
2022-11-29T11:55:32.570Z,21.52
2022-11-29T11:58:09.287Z,20.58
2022-11-29T12:01:06.090Z,20.77
2022-11-29T12:03:45.705Z,22.55
2022-11-29T12:06:31.176Z,24.00
2022-11-29T12:09:19.697Z,18.48
2022-11-29T12:12:10.499Z,20.30
2022-11-29T12:14:56.420Z,19.88
2022-11-29T12:20:01.866Z,18.02
2022-11-29T12:22:37.560Z,23.17
2022-11-29T12:25:10.545Z,19.42
2022-11-29T12:27:37.427Z,24.95
2022-11-29T12:30:12.218Z,22.25
2022-11-29T12:32:57.849Z,20.05
2022-11-29T12:35:36.987Z,24.40
2022-11-29T12:38:16.161Z,23.42
2022-11-29T12:40:51.774Z,27.85
2022-11-29T12:43:24.484Z,25.20
2022-11-29T12:46:13.247Z,28.00
2022-11-29T12:48:56.469Z,27.67
2022-11-29T12:51:49.477Z,27.42
2022-11-29T12:54:25.216Z,27.50
2022-11-29T12:57:18.166Z,26.98
2022-11-29T13:00:14.731Z,24.33
2022-11-29T13:02:53.663Z,29.05
2022-11-29T13:05:39.224Z,26.98
2022-11-29T13:08:37.876Z,29.92
2022-11-29T13:11:35.274Z,34.85
2022-11-29T13:14:42.208Z,28.75
2022-11-29T13:17:22.325Z,29.70
2022-11-29T13:20:21.271Z,30.35
2022-11-29T13:23:20.809Z,27.33
2022-11-29T13:25:51.317Z,30.67
2022-11-29T13:28:25.547Z,31.67
2022-11-29T13:30:59.590Z,33.30
2022-11-29T13:33:29.212Z,28.88
2022-11-29T13:36:13.711Z,27.42
2022-11-29T13:38:40.658Z,28.88
2022-11-29T13:41:37.136Z,26.00
2022-11-29T13:44:12.954Z,26.10
2022-11-29T13:46:39.881Z,27.10
2022-11-29T13:49:19.155Z,28.85
2022-11-29T13:51:46.211Z,29.42
2022-11-29T13:54:29.616Z,30.42
2022-11-29T13:57:08.716Z,28.27
2022-11-29T13:59:42.833Z,32.15
2022-11-29T14:02:31.174Z,26.45
2022-11-29T14:04:58.537Z,30.73
2022-11-29T14:07:25.549Z,27.65
2022-11-29T14:10:00.386Z,25.80
2022-11-29T14:12:55.333Z,28.95
2022-11-29T14:15:31.840Z,31.52
2022-11-29T14:18:07.276Z,32.05
2022-11-29T14:23:08.024Z,43.42
2022-11-29T14:25:53.946Z,53.42
2022-11-29T14:30:51.433Z,70.65
2022-11-29T14:33:43.115Z,72.70
2022-11-29T14:36:18.676Z,74.38
2022-11-29T14:39:02.883Z,70.35
2022-11-29T14:41:50.843Z,76.53
2022-11-29T14:44:19.098Z,72.00
2022-11-29T14:46:47.844Z,74.55
2022-11-29T14:49:26.237Z,62.75
2022-11-29T14:52:13.793Z,70.20
2022-11-29T14:54:56.597Z,70.45
2022-11-29T14:57:51.590Z,72.55
2022-11-29T15:00:20.843Z,69.80
2022-11-29T15:02:58.003Z,79.40
2022-11-29T15:05:54.997Z,84.32
2022-11-29T15:08:59.373Z,82.75
2022-11-29T15:11:35.513Z,96.05
2022-11-29T15:14:13.412Z,85.35
2022-11-29T15:16:57.019Z,79.00
2022-11-29T15:20:03.785Z,99.63
2022-11-29T15:25:17.759Z,103.10
2022-11-29T15:27:56.196Z,104.80
2022-11-29T15:30:31.379Z,115.55
2022-11-29T15:33:00.505Z,89.22
2022-11-29T15:35:27.777Z,106.00
2022-11-29T15:37:54.895Z,93.97
2022-11-29T15:40:26.191Z,169.52
2022-11-29T15:43:01.970Z,152.07
2022-11-29T15:45:37.559Z,195.55
2022-11-29T15:48:13.676Z,164.57
2022-11-29T15:50:48.432Z,139.07
2022-11-29T15:53:38.613Z,139.38
2022-11-29T15:56:15.279Z,110.57
2022-11-29T15:58:42.777Z,223.25
2022-11-29T16:01:14.265Z,215.02
2022-11-29T16:03:43.567Z,178.05
2022-11-29T16:06:24.735Z,228.30
2022-11-29T16:08:54.049Z,197.40
2022-11-29T16:11:27.622Z,236.70
2022-11-29T16:14:43.088Z,168.98
2022-11-29T16:17:10.239Z,145.32
2022-11-29T16:19:38.103Z,211.88
2022-11-29T16:22:15.480Z,202.95
2022-11-29T16:24:54.459Z,239.98
2022-11-29T16:27:23.112Z,188.95
2022-11-29T16:29:52.071Z,242.02
2022-11-29T16:32:31.229Z,213.45
2022-11-29T16:35:07.117Z,154.27
2022-11-29T16:37:44.253Z,160.30
2022-11-29T16:40:31.877Z,120.70
2022-11-29T16:43:04.778Z,169.68
2022-11-29T16:45:36.117Z,167.00
2022-11-29T16:48:28.251Z,212.73
2022-11-29T16:51:10.763Z,171.02
2022-11-29T16:53:41.499Z,165.15
2022-11-29T16:56:11.062Z,155.75
2022-11-29T16:59:16.631Z,207.25
2022-11-29T17:01:28.709Z,199.13
2022-11-29T17:03:57.913Z,177.57
2022-11-29T17:06:25.857Z,194.30
2022-11-29T17:08:55.127Z,225.88
2022-11-29T17:11:22.471Z,121.07
2022-11-29T17:13:52.690Z,134.02
2022-11-29T17:16:22.173Z,137.38
2022-11-29T17:18:49.652Z,158.60
2022-11-29T17:21:27.870Z,100.93
2022-11-29T17:23:54.803Z,116.65
2022-11-29T17:26:22.400Z,90.97
2022-11-29T17:28:51.351Z,131.60
2022-11-29T17:31:21.652Z,107.35
2022-11-29T17:33:48.663Z,131.23
2022-11-29T17:36:18.546Z,153.48
2022-11-29T17:38:46.283Z,113.93
2022-11-29T17:41:22.873Z,146.02
2022-11-29T17:43:51.401Z,182.60
2022-11-29T17:46:24.283Z,127.03
2022-11-29T17:48:52.235Z,162.57
2022-11-29T17:51:50.539Z,104.20
2022-11-29T17:54:09.028Z,128.75
2022-11-29T17:56:35.952Z,131.55
2022-11-29T17:59:04.211Z,125.05
2022-11-29T18:01:34.761Z,121.80
2022-11-29T18:04:03.643Z,111.18
2022-11-29T18:06:39.049Z,156.65
2022-11-29T18:11:46.481Z,143.45
2022-11-29T18:14:17.162Z,140.50
2022-11-29T18:16:45.420Z,138.68
2022-11-29T18:19:14.890Z,83.90
2022-11-29T18:21:41.819Z,116.55
2022-11-29T18:24:09.238Z,96.05
2022-11-29T18:26:37.948Z,140.90
2022-11-29T18:29:06.220Z,125.70
2022-11-29T18:31:38.902Z,125.75
2022-11-29T18:34:09.733Z,140.55
2022-11-29T18:36:47.943Z,113.55
2022-11-29T18:39:17.526Z,150.88
2022-11-29T18:41:48.116Z,135.98
2022-11-29T18:44:17.510Z,103.88
2022-11-29T18:46:45.289Z,134.45
2022-11-29T18:49:15.164Z,80.20
2022-11-29T18:51:44.742Z,72.85
2022-11-29T18:54:13.068Z,85.00
2022-11-29T18:56:40.078Z,89.10
2022-11-29T18:59:17.318Z,142.27
2022-11-29T19:01:46.364Z,130.82
2022-11-29T19:04:15.359Z,94.55
2022-11-29T19:06:43.222Z,100.57
2022-11-29T19:09:15.567Z,83.18
2022-11-29T19:11:42.746Z,77.15
2022-11-29T19:14:11.800Z,83.22
2022-11-29T19:16:44.223Z,74.05
2022-11-29T19:19:11.610Z,59.15
2022-11-29T19:21:39.968Z,65.10
2022-11-29T19:24:13.548Z,62.13
2022-11-29T19:26:41.358Z,68.25
2022-11-29T19:29:08.276Z,72.25
2022-11-29T19:31:35.478Z,58.03
2022-11-29T19:34:02.307Z,72.53
2022-11-29T19:36:31.086Z,76.00
2022-11-29T19:39:01.320Z,89.00
2022-11-29T19:41:32.278Z,78.00
2022-11-29T19:44:01.432Z,88.10
2022-11-29T19:46:31.430Z,79.72
2022-11-29T19:48:59.337Z,71.22
2022-11-29T19:51:27.951Z,71.82
2022-11-29T19:53:56.952Z,72.35
2022-11-29T19:56:24.051Z,64.70
2022-11-29T19:58:51.450Z,80.35
2022-11-29T20:01:25.013Z,80.68
2022-11-29T20:03:52.600Z,78.97
2022-11-29T20:06:19.686Z,120.13
2022-11-29T20:08:47.650Z,109.80
2022-11-29T20:11:22.947Z,84.25
2022-11-29T20:16:38.134Z,76.97
2022-11-29T20:19:12.460Z,81.82
2022-11-29T20:21:45.345Z,116.05
2022-11-29T20:24:14.390Z,97.47
2022-11-29T20:26:44.866Z,74.32
2022-11-29T20:29:12.334Z,101.53
2022-11-29T20:31:45.963Z,86.40
2022-11-29T20:34:16.468Z,84.82
2022-11-29T20:37:16.838Z,82.43
2022-11-29T20:40:05.491Z,98.93
2022-11-29T20:42:55.431Z,85.20
2022-11-29T20:45:23.990Z,79.03
2022-11-29T20:48:01.841Z,65.28
2022-11-29T20:50:31.331Z,69.13
2022-11-29T20:53:22.548Z,70.97
2022-11-29T20:55:49.675Z,67.07
2022-11-29T20:58:16.817Z,79.78
2022-11-29T21:00:43.912Z,78.07
2022-11-29T21:03:18.194Z,73.63
2022-11-29T21:05:45.985Z,69.82
2022-11-29T21:08:14.001Z,66.68
2022-11-29T21:10:40.905Z,70.65
2022-11-29T21:13:09.862Z,62.70
2022-11-29T21:15:36.939Z,60.40
2022-11-29T21:18:04.384Z,57.38
2022-11-29T21:20:31.507Z,58.25
2022-11-29T21:23:08.003Z,54.00
2022-11-29T21:25:59.265Z,53.63
2022-11-29T21:28:40.446Z,46.30
2022-11-29T21:31:12.978Z,49.58
2022-11-29T21:33:40.216Z,43.25
2022-11-29T21:36:08.830Z,53.85
2022-11-29T21:38:35.905Z,48.05
2022-11-29T21:41:02.868Z,50.17
2022-11-29T21:43:58.119Z,49.70
2022-11-29T21:46:17.259Z,50.40
2022-11-29T21:48:44.602Z,42.78
2022-11-29T21:51:11.945Z,46.08
2022-11-29T21:53:40.090Z,42.65
2022-11-29T21:56:09.767Z,39.58
2022-11-29T21:58:37.830Z,39.08
2022-11-29T22:01:12.515Z,41.78
2022-11-29T22:03:40.436Z,36.55
2022-11-29T22:06:09.881Z,41.60
2022-11-29T22:08:41.374Z,34.67
2022-11-29T22:11:10.598Z,36.00
2022-11-29T22:13:58.174Z,38.83
2022-11-29T22:16:25.741Z,34.15
2022-11-29T22:18:52.681Z,36.25
2022-11-29T22:21:19.679Z,38.40
2022-11-29T22:23:46.899Z,42.17
2022-11-29T22:26:13.852Z,43.28
2022-11-29T22:28:40.829Z,45.88
2022-11-29T22:31:11.139Z,42.42
2022-11-29T22:33:38.911Z,43.38
2022-11-29T22:36:11.117Z,39.33
2022-11-29T22:38:39.400Z,43.75
2022-11-29T22:41:12.367Z,44.15
2022-11-29T22:43:41.199Z,50.53
2022-11-29T22:46:17.805Z,56.10
2022-11-29T22:48:46.233Z,46.65
2022-11-29T22:51:18.484Z,45.95
2022-11-29T22:53:56.049Z,45.08
2022-11-29T22:56:25.395Z,45.95
2022-11-29T22:58:52.753Z,46.90
2022-11-29T23:01:22.321Z,44.35
2022-11-29T23:03:54.796Z,44.58
2022-11-29T23:06:36.864Z,42.33
2022-11-29T23:09:16.576Z,48.22
2022-11-29T23:11:46.021Z,42.13
2022-11-29T23:14:13.487Z,40.60
2022-11-29T23:16:41.986Z,45.90
2022-11-29T23:19:09.568Z,45.50
2022-11-29T23:21:38.610Z,44.47
2022-11-29T23:24:06.259Z,44.53
2022-11-29T23:26:37.394Z,49.28
2022-11-29T23:29:06.177Z,53.67
2022-11-29T23:31:33.686Z,47.50
2022-11-29T23:34:02.103Z,55.33
2022-11-29T23:36:28.931Z,52.25
2022-11-29T23:38:56.031Z,50.60
2022-11-29T23:41:22.937Z,50.08
2022-11-29T23:43:49.829Z,53.25
2022-11-29T23:46:22.689Z,51.20
2022-11-29T23:48:50.283Z,49.13
2022-11-29T23:51:18.092Z,47.10
2022-11-29T23:53:46.648Z,48.65
2022-11-29T23:56:17.657Z,44.05
2022-11-29T23:58:45.428Z,53.33
